Time;durP1;ratioP1;P1;durP2;ratioP2;P2;SDS_P1;SDS_P2;PMS_P1;PMS_P2;Temp;Humidity;BMP_temperature;BMP_pressure;BME280_temperature;BME280_humidity;BME280_pressure;Samples;Min_cycle;Max_cycle;Signal;HPM_P1;HPM_P2
2023/03/09 00:01:53;;;;;;;12.52;7.03;;;2.20;99.90;;;;;;5133737;27;20030;-79
2023/03/09 00:04:20;;;;;;;13.82;7.45;;;2.20;99.90;;;;;;5131761;27;20475;-79
2023/03/09 00:06:46;;;;;;;14.23;7.43;;;2.20;99.90;;;;;;5133181;27;20070;-78
2023/03/09 00:09:13;;;;;;;13.48;7.70;;;2.20;99.90;;;;;;5101804;27;20051;-78
2023/03/09 00:11:40;;;;;;;13.52;7.55;;;3.00;99.90;;;;;;5117441;27;20113;-79
2023/03/09 00:14:06;;;;;;;16.70;8.38;;;2.20;99.90;;;;;;5101306;27;20050;-79
2023/03/09 00:16:32;;;;;;;17.50;9.50;;;2.40;99.90;;;;;;5152897;27;20042;-78
2023/03/09 00:18:58;;;;;;;13.95;8.38;;;2.10;99.90;;;;;;5115984;27;20097;-76
2023/03/09 00:21:34;;;;;;;19.83;9.32;;;2.10;99.90;;;;;;5123542;27;21286;-78
2023/03/09 00:24:05;;;;;;;17.25;9.05;;;2.10;99.90;;;;;;5115177;27;20038;-79
2023/03/09 00:26:32;;;;;;;20.50;9.60;;;2.10;99.90;;;;;;5132940;27;20054;-78
2023/03/09 00:28:58;;;;;;;17.40;8.75;;;2.10;99.90;;;;;;5129843;27;20089;-79
2023/03/09 00:31:24;;;;;;;18.17;9.23;;;2.10;99.90;;;;;;5132301;27;20126;-78
2023/03/09 00:33:49;;;;;;;16.35;8.60;;;2.10;99.90;;;;;;5135094;27;20046;-79
2023/03/09 00:36:16;;;;;;;16.35;8.40;;;2.10;99.90;;;;;;5132693;27;20034;-78
2023/03/09 00:38:42;;;;;;;15.48;8.63;;;2.00;99.90;;;;;;5131735;27;20031;-78
2023/03/09 00:41:09;;;;;;;18.27;7.97;;;2.00;99.90;;;;;;5123803;27;20042;-78
2023/03/09 00:43:35;;;;;;;17.90;9.23;;;2.60;99.90;;;;;;5124540;27;20034;-79
2023/03/09 00:46:00;;;;;;;16.08;9.38;;;2.90;99.90;;;;;;5130846;27;20034;-78
2023/03/09 00:48:26;;;;;;;15.43;8.77;;;2.00;99.90;;;;;;5114469;27;20050;-78
2023/03/09 00:50:52;;;;;;;16.27;8.85;;;2.40;99.90;;;;;;5101230;27;20078;-78
2023/03/09 00:53:17;;;;;;;16.67;8.27;;;1.90;99.90;;;;;;5099476;27;20073;-77
2023/03/09 00:55:43;;;;;;;17.65;8.50;;;2.10;99.90;;;;;;5113709;27;20134;-78
2023/03/09 00:58:10;;;;;;;14.07;8.23;;;2.30;99.90;;;;;;5114841;27;20134;-77
2023/03/09 01:00:37;;;;;;;15.88;8.35;;;2.60;99.90;;;;;;5122714;27;20572;-77
2023/03/09 01:03:03;;;;;;;14.15;7.75;;;1.80;99.90;;;;;;5118414;27;20091;-77
2023/03/09 01:05:29;;;;;;;16.75;8.63;;;1.70;99.90;;;;;;5131898;27;20046;-76
2023/03/09 01:07:55;;;;;;;15.73;7.85;;;1.70;99.90;;;;;;5117708;27;20488;-77
2023/03/09 01:10:22;;;;;;;15.27;8.35;;;1.60;99.90;;;;;;5120973;27;20054;-77
2023/03/09 01:12:48;;;;;;;17.73;9.00;;;1.60;99.90;;;;;;5131492;27;20085;-77
2023/03/09 01:15:14;;;;;;;15.57;7.68;;;1.60;99.90;;;;;;5101014;27;20169;-78
2023/03/09 01:17:39;;;;;;;14.13;7.55;;;1.60;99.90;;;;;;5115307;27;20042;-78
2023/03/09 01:20:06;;;;;;;15.57;7.85;;;2.20;99.90;;;;;;5130458;27;20043;-79
2023/03/09 01:22:32;;;;;;;16.60;8.07;;;1.50;99.90;;;;;;5125138;27;20053;-76
2023/03/09 01:24:58;;;;;;;14.30;7.47;;;1.40;99.90;;;;;;5131939;27;20403;-77
2023/03/09 01:27:23;;;;;;;14.50;7.32;;;1.40;99.90;;;;;;5081027;27;20140;-76
2023/03/09 01:29:49;;;;;;;12.40;6.93;;;1.40;99.90;;;;;;5101979;27;20058;-77
2023/03/09 01:32:15;;;;;;;13.20;6.93;;;1.30;99.90;;;;;;5096256;27;20527;-76
2023/03/09 01:34:41;;;;;;;12.80;6.90;;;1.30;99.90;;;;;;5095485;27;20046;-77
2023/03/09 01:37:06;;;;;;;15.20;7.50;;;1.50;99.90;;;;;;5110371;27;20507;-76
2023/03/09 01:39:32;;;;;;;17.98;8.68;;;1.90;99.90;;;;;;5098593;27;20054;-79
2023/03/09 01:41:58;;;;;;;15.18;7.57;;;1.20;99.90;;;;;;5108288;27;20047;-78
2023/03/09 01:44:24;;;;;;;14.20;8.32;;;1.40;99.90;;;;;;5115302;27;20049;-76
2023/03/09 01:46:56;;;;;;;14.60;7.47;;;1.20;99.90;;;;;;5136006;27;20064;-77
2023/03/09 01:49:25;;;;;;;13.55;7.07;;;1.20;99.90;;;;;;5127622;27;20054;-75
2023/03/09 01:52:07;;;;;;;13.95;7.40;;;1.20;99.90;;;;;;5126542;27;20077;-77
2023/03/09 01:54:52;;;;;;;15.05;7.15;;;1.40;99.90;;;;;;5113283;27;20077;-78
2023/03/09 01:57:30;;;;;;;15.60;7.78;;;1.10;99.90;;;;;;5112743;27;20074;-76
2023/03/09 02:00:05;;;;;;;13.85;7.40;;;1.10;99.90;;;;;;5113213;27;20058;-78
2023/03/09 02:02:35;;;;;;;13.02;7.32;;;1.80;99.90;;;;;;5126997;27;20047;-76
2023/03/09 02:05:05;;;;;;;14.23;7.53;;;1.40;99.90;;;;;;5126787;27;20050;-76
2023/03/09 02:07:34;;;;;;;15.75;8.27;;;1.10;99.90;;;;;;5113456;27;20149;-76
2023/03/09 02:10:26;;;;;;;14.20;7.35;;;1.10;99.90;;;;;;5112655;27;20086;-77
2023/03/09 02:12:58;;;;;;;14.95;7.10;;;1.10;99.90;;;;;;5120526;27;20047;-77
2023/03/09 02:15:24;;;;;;;13.82;7.32;;;1.40;99.90;;;;;;5134198;27;20226;-77
2023/03/09 02:17:50;;;;;;;14.70;7.03;;;1.20;99.90;;;;;;5112983;27;20068;-77
2023/03/09 02:20:22;;;;;;;13.23;7.13;;;1.60;99.90;;;;;;5124242;27;20063;-77
2023/03/09 02:22:48;;;;;;;14.88;7.32;;;1.60;99.90;;;;;;5120453;27;20039;-76
2023/03/09 02:25:32;;;;;;;14.50;7.20;;;1.90;99.90;;;;;;5120112;27;20046;-77
2023/03/09 02:27:59;;;;;;;14.43;7.97;;;1.20;99.90;;;;;;5127161;27;20054;-77
2023/03/09 02:30:28;;;;;;;15.07;7.78;;;1.10;99.90;;;;;;5114527;27;20050;-76
2023/03/09 02:33:12;;;;;;;15.43;7.75;;;1.80;99.90;;;;;;5119344;27;20578;-76
2023/03/09 02:35:38;;;;;;;14.63;7.55;;;1.20;99.90;;;;;;5117340;27;20074;-77
2023/03/09 02:38:09;;;;;;;16.27;7.70;;;2.30;99.90;;;;;;5114150;27;20133;-77
2023/03/09 02:40:36;;;;;;;13.38;7.43;;;1.20;99.90;;;;;;5121093;27;20046;-76
2023/03/09 02:43:03;;;;;;;16.50;7.55;;;1.20;99.90;;;;;;5134011;27;20400;-78
2023/03/09 02:45:30;;;;;;;16.10;7.65;;;1.20;99.90;;;;;;5115394;27;20065;-77
2023/03/09 02:47:57;;;;;;;13.43;6.95;;;1.90;99.90;;;;;;5113945;27;20100;-77
2023/03/09 02:50:24;;;;;;;13.50;7.28;;;1.90;99.90;;;;;;5124369;27;20050;-76
2023/03/09 02:52:49;;;;;;;16.02;7.78;;;1.20;99.90;;;;;;5113088;27;20043;-76
2023/03/09 02:55:16;;;;;;;13.18;6.90;;;1.20;99.90;;;;;;5088097;27;20073;-78
2023/03/09 02:57:42;;;;;;;15.50;7.05;;;1.30;99.90;;;;;;5121744;27;20179;-77
2023/03/09 03:00:10;;;;;;;12.45;7.68;;;1.20;99.90;;;;;;5107062;27;20122;-76
2023/03/09 03:02:37;;;;;;;13.10;7.47;;;1.30;99.90;;;;;;5125227;27;20082;-77
2023/03/09 03:05:04;;;;;;;12.50;7.60;;;1.30;99.90;;;;;;5128456;27;20212;-77
2023/03/09 03:07:30;;;;;;;15.98;8.50;;;1.30;99.90;;;;;;5140248;27;20050;-76
2023/03/09 03:09:56;;;;;;;14.25;7.28;;;1.30;99.90;;;;;;5113325;27;20039;-76
2023/03/09 03:12:21;;;;;;;13.57;7.43;;;1.80;99.90;;;;;;5129721;27;20039;-76
2023/03/09 03:14:47;;;;;;;16.92;8.10;;;1.30;99.90;;;;;;5100509;27;20074;-77
2023/03/09 03:17:13;;;;;;;16.35;7.65;;;1.30;99.90;;;;;;5114831;27;20047;-77
2023/03/09 03:19:39;;;;;;;15.60;7.85;;;2.50;99.90;;;;;;5121797;27;20043;-79
2023/03/09 03:22:05;;;;;;;14.65;7.68;;;1.30;99.90;;;;;;5119815;27;20046;-78
2023/03/09 03:24:34;;;;;;;15.32;8.38;;;1.30;99.90;;;;;;5130976;27;20098;-77
2023/03/09 03:27:00;;;;;;;16.08;8.23;;;1.30;99.90;;;;;;5132058;27;20135;-78
2023/03/09 03:29:26;;;;;;;14.20;7.70;;;1.80;99.90;;;;;;5116616;27;20051;-77
2023/03/09 03:31:52;;;;;;;12.45;7.78;;;1.20;99.90;;;;;;5100847;27;20464;-78
2023/03/09 03:34:17;;;;;;;14.02;7.75;;;1.30;99.90;;;;;;5130424;27;20103;-77
2023/03/09 03:36:43;;;;;;;15.05;7.97;;;1.90;99.90;;;;;;5125052;27;20077;-77
2023/03/09 03:39:09;;;;;;;16.05;8.38;;;2.00;99.90;;;;;;5099587;27;20053;-77
2023/03/09 03:41:35;;;;;;;16.23;8.57;;;1.40;99.90;;;;;;5120734;27;20082;-77
2023/03/09 03:44:01;;;;;;;15.57;8.30;;;1.30;99.90;;;;;;5115512;27;20050;-77
2023/03/09 03:46:26;;;;;;;15.48;8.40;;;1.30;99.90;;;;;;5122894;27;20098;-77
2023/03/09 03:48:52;;;;;;;15.35;8.15;;;1.30;99.90;;;;;;5097413;27;20628;-77
2023/03/09 03:51:18;;;;;;;15.90;8.30;;;2.40;99.90;;;;;;5113170;27;20054;-77
2023/03/09 03:53:44;;;;;;;14.18;7.70;;;1.30;99.90;;;;;;5121946;27;20039;-77
2023/03/09 03:56:10;;;;;;;14.70;8.00;;;1.60;99.90;;;;;;5106437;27;20046;-77
2023/03/09 03:58:35;;;;;;;16.38;8.13;;;2.50;99.90;;;;;;5103718;27;20047;-77
2023/03/09 04:01:03;;;;;;;17.48;8.63;;;1.20;99.90;;;;;;5130817;27;20054;-76
2023/03/09 04:03:29;;;;;;;15.05;7.68;;;1.20;99.90;;;;;;5113310;27;20057;-77
2023/03/09 04:05:55;;;;;;;14.93;7.90;;;1.20;99.90;;;;;;5121192;27;20038;-77
2023/03/09 04:08:20;;;;;;;17.13;8.10;;;1.10;99.90;;;;;;5113731;27;20043;-77
2023/03/09 04:10:46;;;;;;;16.13;8.45;;;1.10;99.90;;;;;;5113267;27;20043;-78
2023/03/09 04:13:12;;;;;;;13.63;7.85;;;2.60;99.90;;;;;;5127670;27;20046;-77
2023/03/09 04:15:38;;;;;;;14.15;8.45;;;1.70;99.90;;;;;;5114203;27;20047;-78
2023/03/09 04:18:05;;;;;;;17.38;8.52;;;1.30;99.90;;;;;;5113965;27;20074;-77
2023/03/09 04:20:31;;;;;;;15.85;8.50;;;1.20;99.90;;;;;;5130327;27;20627;-77
2023/03/09 04:22:57;;;;;;;15.90;8.55;;;1.00;99.90;;;;;;5101784;27;20047;-76
2023/03/09 04:25:23;;;;;;;16.13;8.52;;;1.00;99.90;;;;;;5117450;27;20123;-77
2023/03/09 04:27:49;;;;;;;14.20;8.13;;;1.60;99.90;;;;;;5123168;27;20120;-77
2023/03/09 04:30:20;;;;;;;17.60;8.80;;;1.40;99.90;;;;;;5140207;27;20091;-77
2023/03/09 04:32:47;;;;;;;17.85;9.00;;;1.00;99.90;;;;;;5121589;27;20039;-77
2023/03/09 04:35:12;;;;;;;15.40;8.68;;;1.50;99.90;;;;;;5104195;27;20043;-78
2023/03/09 04:37:38;;;;;;;17.38;8.82;;;1.00;99.90;;;;;;5113808;27;20092;-78
2023/03/09 04:40:05;;;;;;;16.63;8.60;;;2.00;99.90;;;;;;5097127;27;20123;-77
2023/03/09 04:42:31;;;;;;;17.50;8.75;;;1.00;99.90;;;;;;5104412;27;20046;-77
2023/03/09 04:44:57;;;;;;;16.40;8.93;;;1.00;99.90;;;;;;5113124;27;20069;-77
2023/03/09 04:47:23;;;;;;;17.95;8.90;;;2.20;99.90;;;;;;5103298;27;20477;-78
2023/03/09 04:49:49;;;;;;;18.88;9.38;;;1.00;99.90;;;;;;5098224;27;20042;-77
2023/03/09 04:52:15;;;;;;;17.17;9.73;;;1.10;99.90;;;;;;5128175;27;20038;-77
2023/03/09 04:54:41;;;;;;;18.35;10.00;;;0.90;99.90;;;;;;5113951;27;20043;-76
2023/03/09 04:57:06;;;;;;;18.80;10.00;;;0.90;99.90;;;;;;5135363;27;20047;-77
2023/03/09 04:59:32;;;;;;;16.58;9.65;;;1.50;99.90;;;;;;5079587;27;20634;-77
2023/03/09 05:01:58;;;;;;;17.23;9.13;;;0.90;99.90;;;;;;5112152;27;20047;-77
2023/03/09 05:04:24;;;;;;;18.33;9.68;;;1.70;99.90;;;;;;5112186;27;20050;-77
2023/03/09 05:06:50;;;;;;;17.83;9.27;;;0.90;99.90;;;;;;5097148;27;20043;-77
2023/03/09 05:09:16;;;;;;;19.73;8.73;;;0.90;99.90;;;;;;5112865;27;20062;-77
2023/03/09 05:11:43;;;;;;;15.98;8.77;;;1.30;99.90;;;;;;5111884;27;20047;-77
2023/03/09 05:14:08;;;;;;;15.23;8.63;;;0.90;99.90;;;;;;5123086;27;20429;-77
2023/03/09 05:16:34;;;;;;;17.63;9.45;;;0.80;99.90;;;;;;5097967;27;20041;-77
2023/03/09 05:19:00;;;;;;;16.33;8.77;;;0.80;99.90;;;;;;5120084;27;20396;-77
2023/03/09 05:21:26;;;;;;;17.48;9.02;;;2.20;99.90;;;;;;5118513;27;20039;-77
2023/03/09 05:23:51;;;;;;;17.83;9.48;;;0.80;99.90;;;;;;5111008;27;20051;-78
2023/03/09 05:26:18;;;;;;;19.33;9.40;;;1.20;99.90;;;;;;5111974;27;20187;-78
2023/03/09 05:28:44;;;;;;;20.05;10.40;;;0.80;99.90;;;;;;5141251;27;20050;-78
2023/03/09 05:31:13;;;;;;;18.63;10.13;;;0.80;99.90;;;;;;5124241;27;20451;-77
2023/03/09 05:33:38;;;;;;;18.88;10.35;;;1.30;99.90;;;;;;5122295;27;20043;-77
2023/03/09 05:36:18;;;;;;;18.42;9.90;;;1.70;99.90;;;;;;5116419;27;20471;-77
2023/03/09 05:38:44;;;;;;;18.15;9.10;;;0.80;99.90;;;;;;5138812;27;20039;-78
2023/03/09 05:41:10;;;;;;;21.05;9.98;;;0.80;99.90;;;;;;5124356;27;20046;-77
2023/03/09 05:43:36;;;;;;;19.05;9.55;;;0.80;99.90;;;;;;5130017;27;20031;-77
2023/03/09 05:46:02;;;;;;;19.63;10.43;;;1.20;99.90;;;;;;5130933;27;20047;-78
2023/03/09 05:48:28;;;;;;;18.00;9.02;;;0.70;99.90;;;;;;5119016;27;20058;-79
2023/03/09 05:50:54;;;;;;;17.25;8.88;;;1.10;99.90;;;;;;5105201;27;20042;-78
2023/03/09 05:53:20;;;;;;;17.50;9.18;;;0.70;99.90;;;;;;5119062;27;20551;-78
2023/03/09 05:55:52;;;;;;;19.73;10.43;;;0.70;99.90;;;;;;5121458;27;20060;-77
2023/03/09 05:58:18;;;;;;;22.95;11.05;;;0.60;99.90;;;;;;5126759;27;20058;-79
2023/03/09 06:00:44;;;;;;;19.60;10.27;;;0.60;99.90;;;;;;5133913;27;20608;-78
2023/03/09 06:03:10;;;;;;;19.58;10.45;;;1.50;99.90;;;;;;5144601;27;20579;-77
2023/03/09 06:05:36;;;;;;;18.08;9.82;;;0.60;99.90;;;;;;5121484;27;20039;-77
2023/03/09 06:08:01;;;;;;;19.55;9.15;;;1.60;99.90;;;;;;5118491;27;20049;-78
2023/03/09 06:10:27;;;;;;;16.98;9.32;;;0.50;99.90;;;;;;5108043;27;20075;-78
2023/03/09 06:12:53;;;;;;;18.60;10.02;;;0.50;99.90;;;;;;5135077;27;20042;-78
2023/03/09 06:15:18;;;;;;;20.15;10.70;;;0.50;99.90;;;;;;5118980;27;20038;-77
2023/03/09 06:17:44;;;;;;;22.20;10.10;;;0.40;99.90;;;;;;5134115;27;20038;-79
2023/03/09 06:20:10;;;;;;;18.27;9.35;;;0.40;99.90;;;;;;5131662;27;20053;-81
2023/03/09 06:22:36;;;;;;;18.67;9.43;;;0.30;99.90;;;;;;5126363;27;20042;-83
2023/03/09 06:25:02;;;;;;;18.25;9.43;;;0.30;99.90;;;;;;5104239;27;20046;-81
2023/03/09 06:27:28;;;;;;;18.92;10.38;;;0.30;99.90;;;;;;5120791;27;20077;-81
2023/03/09 06:29:54;;;;;;;19.05;10.23;;;0.30;99.90;;;;;;5104209;27;20050;-77
2023/03/09 06:32:21;;;;;;;18.75;9.95;;;0.20;99.90;;;;;;5117245;27;20054;-80
2023/03/09 06:34:46;;;;;;;19.33;9.90;;;0.20;99.90;;;;;;5121624;27;20042;-78
2023/03/09 06:37:12;;;;;;;20.10;10.07;;;0.80;99.90;;;;;;5133750;27;20100;-78
2023/03/09 06:39:39;;;;;;;18.17;9.20;;;;;;;;;;5115610;27;20155;-77
2023/03/09 06:42:05;;;;;;;21.50;10.23;;;0.10;99.90;;;;;;5112312;27;20094;-79
2023/03/09 06:44:31;;;;;;;22.65;10.55;;;0.10;99.90;;;;;;5133236;27;20046;-78
2023/03/09 06:46:57;;;;;;;21.10;10.07;;;0.10;99.90;;;;;;5101044;27;20495;-80
2023/03/09 06:49:22;;;;;;;20.75;10.00;;;0.50;99.90;;;;;;5101861;27;20053;-80
2023/03/09 06:51:48;;;;;;;19.95;9.75;;;0.10;99.90;;;;;;5104084;27;20387;-80
2023/03/09 06:54:14;;;;;;;19.20;9.65;;;0.50;99.90;;;;;;5118811;27;20046;-80
2023/03/09 06:56:41;;;;;;;21.55;10.18;;;0.60;99.90;;;;;;5116450;27;20046;-81
2023/03/09 06:59:06;;;;;;;19.23;10.25;;;1.60;99.90;;;;;;5108351;27;20038;-80
2023/03/09 07:01:33;;;;;;;17.98;10.10;;;0.60;99.90;;;;;;5120721;27;20064;-80
2023/03/09 07:03:59;;;;;;;19.70;9.82;;;1.90;99.90;;;;;;5111068;27;20042;-81
2023/03/09 07:06:25;;;;;;;20.13;9.90;;;1.10;99.90;;;;;;5134348;27;20046;-80
2023/03/09 07:08:51;;;;;;;19.50;10.32;;;1.40;99.90;;;;;;5106581;27;20038;-80
2023/03/09 07:11:17;;;;;;;20.40;10.85;;;1.10;99.90;;;;;;5103621;27;20054;-80
2023/03/09 07:13:42;;;;;;;22.52;11.80;;;1.30;99.90;;;;;;5110350;27;20046;-81
2023/03/09 07:16:08;;;;;;;19.35;11.05;;;0.40;99.90;;;;;;5105395;27;20534;-78
2023/03/09 07:18:34;;;;;;;20.98;11.23;;;0.60;99.90;;;;;;5087341;27;20818;-78
2023/03/09 07:21:02;;;;;;;25.70;12.48;;;0.50;99.90;;;;;;5124675;27;20514;-79
2023/03/09 07:23:29;;;;;;;27.58;12.18;;;0.60;99.90;;;;;;5133465;27;20125;-79
2023/03/09 07:25:59;;;;;;;29.38;12.05;;;0.60;99.90;;;;;;5102114;27;20495;-77
2023/03/09 07:28:25;;;;;;;24.02;11.63;;;0.70;99.90;;;;;;5114678;27;20410;-79
2023/03/09 07:30:51;;;;;;;23.42;10.80;;;0.80;99.90;;;;;;5102091;27;20039;-77
2023/03/09 07:33:16;;;;;;;26.83;12.13;;;1.40;99.90;;;;;;5121968;27;20130;-77
2023/03/09 07:35:42;;;;;;;21.30;11.18;;;0.90;99.90;;;;;;5118869;27;20051;-77
2023/03/09 07:38:08;;;;;;;22.23;10.65;;;1.00;99.90;;;;;;5131655;27;22207;-78
2023/03/09 07:40:34;;;;;;;20.88;10.68;;;1.10;99.90;;;;;;5121732;27;20046;-78
2023/03/09 07:42:59;;;;;;;20.52;10.77;;;2.70;99.90;;;;;;5118522;27;20582;-78
2023/03/09 07:45:25;;;;;;;19.20;10.88;;;2.50;99.90;;;;;;5137189;27;20046;-82
2023/03/09 07:47:51;;;;;;;20.88;10.40;;;1.30;99.90;;;;;;5103808;27;20038;-81
2023/03/09 07:50:17;;;;;;;22.35;11.60;;;1.40;99.90;;;;;;5106890;27;20042;-80
2023/03/09 07:52:43;;;;;;;18.90;10.35;;;1.50;99.90;;;;;;5105455;27;20046;-80
2023/03/09 07:55:11;;;;;;;20.77;10.27;;;1.50;99.90;;;;;;5122639;27;20487;-80
2023/03/09 07:57:38;;;;;;;21.10;10.27;;;1.70;99.90;;;;;;5131799;27;20049;-80
2023/03/09 08:00:12;;;;;;;19.00;9.52;;;2.90;99.90;;;;;;5135232;27;20054;-80
2023/03/09 08:02:41;;;;;;;19.48;10.45;;;1.80;99.90;;;;;;5133467;27;20063;-80
2023/03/09 08:05:09;;;;;;;19.90;10.95;;;2.40;99.90;;;;;;5132315;27;20053;-82
2023/03/09 08:07:35;;;;;;;21.48;11.00;;;2.00;99.90;;;;;;5138052;27;20122;-81
2023/03/09 08:10:02;;;;;;;21.63;10.43;;;1.00;99.90;;;;;;5132412;27;20039;-80
2023/03/09 08:12:28;;;;;;;21.60;10.35;;;2.10;99.90;;;;;;5135140;27;20087;-82
2023/03/09 08:14:53;;;;;;;23.95;11.65;;;2.20;99.90;;;;;;5104257;27;20487;-81
2023/03/09 08:17:19;;;;;;;18.00;10.18;;;3.60;99.90;;;;;;5120936;27;20051;-80
2023/03/09 08:19:45;;;;;;;20.95;10.30;;;2.40;99.90;;;;;;5086685;27;20454;-80
2023/03/09 08:22:11;;;;;;;18.52;10.30;;;2.50;99.90;;;;;;5116050;27;20105;-81
2023/03/09 08:24:37;;;;;;;21.55;10.85;;;2.60;99.90;;;;;;5102931;27;20822;-80
2023/03/09 08:27:03;;;;;;;19.75;10.80;;;2.80;99.90;;;;;;5123326;27;20768;-82
2023/03/09 08:29:29;;;;;;;17.63;10.23;;;3.00;99.90;;;;;;5120620;27;20046;-82
2023/03/09 08:31:54;;;;;;;17.95;9.18;;;3.20;99.90;;;;;;5108710;27;20042;-78
2023/03/09 08:34:20;;;;;;;18.75;9.68;;;3.60;99.90;;;;;;5083338;27;20046;-79
2023/03/09 08:36:46;;;;;;;15.48;9.02;;;3.40;99.90;;;;;;5121525;27;20046;-78
2023/03/09 08:39:12;;;;;;;15.60;7.97;;;3.70;99.90;;;;;;5120852;27;20136;-77
2023/03/09 08:41:38;;;;;;;14.55;8.23;;;4.80;99.90;;;;;;5136111;27;20163;-77
2023/03/09 08:44:04;;;;;;;15.50;8.73;;;4.00;99.90;;;;;;5122287;27;20053;-76
2023/03/09 08:46:30;;;;;;;13.07;8.13;;;4.30;99.90;;;;;;5121417;27;20047;-78
2023/03/09 08:48:56;;;;;;;14.88;8.15;;;4.60;99.90;;;;;;5119893;27;20126;-76
2023/03/09 08:51:22;;;;;;;11.40;6.55;;;4.90;99.90;;;;;;5123538;27;20486;-77
2023/03/09 08:53:48;;;;;;;10.90;6.80;;;5.10;99.90;;;;;;5136199;27;20059;-76
2023/03/09 08:56:14;;;;;;;11.60;7.03;;;5.30;99.90;;;;;;5122444;27;20056;-76
2023/03/09 08:58:40;;;;;;;11.38;7.10;;;5.50;99.90;;;;;;5113441;27;20226;-76
2023/03/09 09:01:08;;;;;;;10.88;6.45;;;5.80;99.90;;;;;;5117796;27;20046;-77
2023/03/09 09:03:35;;;;;;;10.75;6.47;;;6.10;99.90;;;;;;5119661;27;20460;-77
2023/03/09 09:06:13;;;;;;;8.90;6.15;;;6.30;99.90;;;;;;5118044;27;20126;-77
2023/03/09 09:08:39;;;;;;;10.65;5.65;;;6.40;99.90;;;;;;5127001;27;20054;-77
2023/03/09 09:11:15;;;;;;;10.27;5.93;;;6.50;99.90;;;;;;5134413;27;20047;-78
2023/03/09 09:13:41;;;;;;;7.23;5.17;;;6.40;99.90;;;;;;5138228;27;20046;-77
2023/03/09 09:16:09;;;;;;;7.63;5.43;;;6.20;99.90;;;;;;5135553;27;20125;-77
2023/03/09 09:18:36;;;;;;;9.32;5.43;;;6.10;99.90;;;;;;5135981;27;20046;-77
2023/03/09 09:21:07;;;;;;;10.02;6.13;;;6.10;99.90;;;;;;5101333;27;20050;-77
2023/03/09 09:23:38;;;;;;;8.43;5.20;;;6.10;99.90;;;;;;5136678;27;20613;-79
2023/03/09 09:26:05;;;;;;;8.55;5.25;;;6.20;99.90;;;;;;5121501;27;20042;-76
2023/03/09 09:28:31;;;;;;;10.77;5.45;;;6.20;99.90;;;;;;5119379;27;20483;-77
2023/03/09 09:31:00;;;;;;;7.75;5.10;;;6.20;99.90;;;;;;5129433;27;20047;-77
2023/03/09 09:33:30;;;;;;;8.98;5.80;;;6.30;99.90;;;;;;5119802;27;20064;-76
2023/03/09 09:35:58;;;;;;;8.30;5.50;;;6.40;99.90;;;;;;5119845;27;20038;-77
2023/03/09 09:38:25;;;;;;;9.57;5.57;;;6.50;99.90;;;;;;5136975;27;20058;-77
2023/03/09 09:40:54;;;;;;;9.70;5.15;;;6.60;99.90;;;;;;5118523;27;20051;-78
2023/03/09 09:43:22;;;;;;;9.80;5.80;;;6.80;99.90;;;;;;5120938;27;20089;-77
2023/03/09 09:45:49;;;;;;;10.98;6.32;;;6.90;99.90;;;;;;5126301;27;20050;-77
2023/03/09 09:48:17;;;;;;;9.98;6.20;;;7.00;99.90;;;;;;5122585;27;20043;-77
2023/03/09 09:51:24;;;;;;;10.05;6.60;;;7.10;99.90;;;;;;5122847;27;20050;-77
2023/03/09 09:54:06;;;;;;;9.05;5.75;;;7.30;99.90;;;;;;5134322;27;20053;-78
2023/03/09 09:56:50;;;;;;;7.90;5.72;;;7.40;99.90;;;;;;5122096;27;20038;-76
2023/03/09 09:59:53;;;;;;;7.57;5.63;;;7.60;99.90;;;;;;5126577;27;20138;-76
2023/03/09 10:02:55;;;;;;;8.27;5.72;;;7.70;99.90;;;;;;5107305;27;20080;-77
2023/03/09 10:06:01;;;;;;;8.07;5.10;;;7.70;99.90;;;;;;5120703;27;20154;-78
2023/03/09 10:08:59;;;;;;;8.35;5.40;;;7.80;99.90;;;;;;5143096;27;20039;-77
2023/03/09 10:11:34;;;;;;;7.95;5.40;;;7.90;99.90;;;;;;5126620;27;20043;-77
2023/03/09 10:14:29;;;;;;;9.43;5.17;;;8.00;99.90;;;;;;5118187;27;20054;-77
2023/03/09 10:17:02;;;;;;;7.60;5.28;;;8.20;99.90;;;;;;5126845;27;20065;-78
2023/03/09 10:19:34;;;;;;;7.28;5.43;;;8.30;99.90;;;;;;5134948;27;20051;-78
2023/03/09 10:22:13;;;;;;;6.65;4.82;;;8.30;99.90;;;;;;5136273;27;20399;-77
2023/03/09 10:24:44;;;;;;;6.30;4.22;;;8.40;99.90;;;;;;5119254;27;20056;-77
2023/03/09 10:27:47;;;;;;;7.35;5.00;;;8.40;99.90;;;;;;5153157;27;20145;-77
2023/03/09 10:30:42;;;;;;;6.65;4.85;;;8.40;99.90;;;;;;5117777;27;20913;-77
2023/03/09 10:33:26;;;;;;;7.63;5.28;;;8.30;99.90;;;;;;5137356;27;20057;-77
2023/03/09 10:36:05;;;;;;;9.32;5.07;;;8.20;99.90;;;;;;5126807;27;20506;-77
2023/03/09 10:38:32;;;;;;;8.13;4.95;;;8.10;99.90;;;;;;5124037;27;20081;-77
2023/03/09 10:40:58;;;;;;;7.40;5.15;;;8.00;99.90;;;;;;5132055;27;20219;-77
2023/03/09 10:43:26;;;;;;;6.75;5.10;;;7.90;99.90;;;;;;5124892;27;20042;-77
2023/03/09 10:45:53;;;;;;;7.57;5.18;;;7.80;99.90;;;;;;5120588;27;20487;-77
2023/03/09 10:48:22;;;;;;;8.43;6.00;;;7.80;99.90;;;;;;5124697;27;20603;-76
2023/03/09 10:50:58;;;;;;;7.97;5.07;;;7.80;99.90;;;;;;5122111;27;20050;-76
2023/03/09 10:53:32;;;;;;;6.75;5.18;;;7.80;99.90;;;;;;5138967;27;20046;-76
2023/03/09 10:56:20;;;;;;;10.25;5.68;;;7.80;99.90;;;;;;5129706;27;20049;-76
2023/03/09 10:58:47;;;;;;;8.77;5.95;;;7.70;99.90;;;;;;5123195;27;20054;-76
2023/03/09 11:01:12;;;;;;;7.57;5.97;;;7.60;99.90;;;;;;5122475;27;20459;-76
2023/03/09 11:03:43;;;;;;;10.25;6.30;;;7.50;99.90;;;;;;5130018;27;20088;-77
2023/03/09 11:06:16;;;;;;;7.65;5.72;;;7.40;99.90;;;;;;5107828;27;20053;-76
2023/03/09 11:08:44;;;;;;;8.05;5.40;;;7.40;99.90;;;;;;5130097;27;20117;-76
2023/03/09 11:11:20;;;;;;;9.20;6.03;;;7.20;99.90;;;;;;5128842;27;20458;-76
2023/03/09 11:13:52;;;;;;;7.82;5.80;;;7.00;99.90;;;;;;5152826;27;20050;-75
2023/03/09 11:16:24;;;;;;;8.95;5.72;;;7.00;99.90;;;;;;5109855;27;20061;-75
2023/03/09 11:19:05;;;;;;;8.07;6.07;;;7.00;99.90;;;;;;5125593;27;20057;-76
2023/03/09 11:21:53;;;;;;;8.95;6.30;;;6.90;99.90;;;;;;5127081;27;20046;-76
2023/03/09 11:24:36;;;;;;;8.52;6.00;;;7.00;99.90;;;;;;5124364;27;20046;-75
2023/03/09 11:27:32;;;;;;;8.57;5.40;;;6.80;99.90;;;;;;5125329;27;20741;-76
2023/03/09 11:30:16;;;;;;;8.65;5.90;;;6.70;99.90;;;;;;5134294;27;20058;-76
2023/03/09 11:32:45;;;;;;;9.07;6.30;;;6.70;99.90;;;;;;5126196;27;20494;-78
2023/03/09 11:35:15;;;;;;;10.80;6.22;;;6.60;99.90;;;;;;5158505;27;20050;-76
2023/03/09 11:37:56;;;;;;;8.07;6.05;;;6.60;99.90;;;;;;5130506;27;20085;-76
2023/03/09 11:40:28;;;;;;;8.07;5.03;;;6.40;99.90;;;;;;5123378;27;20039;-76
2023/03/09 11:43:18;;;;;;;8.18;5.47;;;6.60;99.90;;;;;;5131627;27;20046;-76
2023/03/09 11:45:43;;;;;;;7.10;5.40;;;6.60;99.90;;;;;;5131918;27;20137;-78
2023/03/09 11:48:27;;;;;;;8.32;5.57;;;6.70;99.90;;;;;;5123208;27;20105;-76
2023/03/09 11:51:05;;;;;;;8.65;5.65;;;6.80;99.90;;;;;;5138213;27;20046;-76
2023/03/09 11:53:39;;;;;;;7.82;4.93;;;6.90;99.90;;;;;;5141398;27;20057;-76
2023/03/09 11:56:27;;;;;;;7.50;5.22;;;7.00;99.90;;;;;;5136648;27;20085;-77
2023/03/09 11:59:21;;;;;;;8.13;5.32;;;7.10;99.90;;;;;;5122586;27;20532;-78
2023/03/09 12:02:10;;;;;;;7.57;5.30;;;7.10;99.90;;;;;;5127001;27;20487;-77
2023/03/09 12:04:36;;;;;;;8.10;5.45;;;7.10;99.90;;;;;;5150904;27;20042;-77
2023/03/09 12:07:15;;;;;;;9.18;6.28;;;7.10;99.90;;;;;;5109126;27;20093;-77
2023/03/09 12:09:56;;;;;;;7.40;5.35;;;7.10;99.90;;;;;;5127532;27;20065;-77
2023/03/09 12:12:39;;;;;;;7.93;5.50;;;7.00;99.90;;;;;;5120016;27;20054;-77
2023/03/09 12:15:20;;;;;;;9.77;6.13;;;7.00;99.90;;;;;;5121941;27;20499;-77
2023/03/09 12:18:01;;;;;;;10.60;6.20;;;7.00;99.90;;;;;;5136544;27;20061;-77
2023/03/09 12:20:34;;;;;;;10.23;6.85;;;6.90;99.90;;;;;;5131184;27;20043;-76
2023/03/09 12:23:00;;;;;;;10.23;6.72;;;6.90;99.90;;;;;;5120569;27;20078;-77
2023/03/09 12:25:28;;;;;;;8.77;5.68;;;6.90;99.90;;;;;;5122657;27;20130;-76
2023/03/09 12:28:01;;;;;;;8.48;6.10;;;6.90;99.90;;;;;;5136067;27;20137;-77
2023/03/09 12:30:31;;;;;;;8.93;6.35;;;6.90;99.90;;;;;;5125359;27;20054;-77
2023/03/09 12:33:00;;;;;;;7.40;5.60;;;6.90;99.90;;;;;;5127607;27;20038;-77
2023/03/09 12:35:26;;;;;;;7.97;5.03;;;6.90;99.90;;;;;;5120158;27;20071;-77
2023/03/09 12:38:02;;;;;;;7.75;5.30;;;6.90;99.90;;;;;;5124383;27;20038;-76
2023/03/09 12:40:28;;;;;;;6.82;4.80;;;6.80;99.90;;;;;;5128104;27;20057;-77
2023/03/09 12:43:15;;;;;;;7.40;4.95;;;6.80;99.90;;;;;;5131357;27;20046;-76
2023/03/09 12:45:45;;;;;;;9.65;5.90;;;6.80;99.90;;;;;;5121124;27;20054;-77
2023/03/09 12:48:14;;;;;;;7.35;5.45;;;6.70;99.90;;;;;;5120596;27;20102;-77
2023/03/09 12:50:46;;;;;;;8.07;5.20;;;6.70;99.90;;;;;;5124869;27;20113;-77
2023/03/09 12:53:19;;;;;;;6.38;4.78;;;6.70;99.90;;;;;;5136415;27;20091;-77
2023/03/09 12:55:53;;;;;;;7.57;5.20;;;7.50;99.90;;;;;;5139559;27;20042;-77
2023/03/09 12:58:20;;;;;;;7.10;5.57;;;6.70;99.90;;;;;;5137681;27;20046;-77
2023/03/09 13:00:58;;;;;;;7.55;4.85;;;6.60;99.90;;;;;;5132192;27;20137;-76